Time;durP1;ratioP1;P1;durP2;ratioP2;P2;SDS_P1;SDS_P2;PMS_P1;PMS_P2;Temp;Humidity;BMP_temperature;BMP_pressure;BME280_temperature;BME280_humidity;BME280_pressure;Samples;Min_cycle;Max_cycle;Signal;HPM_P1;HPM_P2
2022/01/04 00:00:20;;;;;;;5.85;1.23;;;;;;;20.25;46.21;102068.31;4237316;28;20440;-57
2022/01/04 00:02:21;;;;;;;2.75;1.13;;;;;;;20.27;46.51;102066.13;4223172;28;20048;-59
2022/01/04 00:04:23;;;;;;;3.50;1.40;;;;;;;20.25;46.46;102068.31;4231633;28;20116;-58
2022/01/04 00:06:25;;;;;;;2.72;1.10;;;;;;;20.26;46.16;102081.13;4237706;28;20148;-59
2022/01/04 00:08:27;;;;;;;3.03;1.05;;;;;;;20.26;46.05;102078.34;4229423;28;20027;-58
2022/01/04 00:10:29;;;;;;;3.35;1.10;;;;;;;20.26;45.73;102089.47;4230764;28;20043;-58
2022/01/04 00:14:50;;;;;;;2.65;1.13;;;;;;;20.27;45.97;102088.34;4236338;28;20235;-60
2022/01/04 00:16:55;;;;;;;4.75;1.35;;;;;;;20.27;45.78;102099.47;4237809;28;20504;-60
2022/01/04 00:18:56;;;;;;;10.00;1.20;;;;;;;20.30;45.90;102109.28;4224914;28;20089;-60
2022/01/04 00:20:57;;;;;;;6.90;1.10;;;;;;;20.29;46.36;102104.78;4224925;28;20321;-59
2022/01/04 00:22:59;;;;;;;3.80;1.20;;;;;;;20.26;45.96;102103.34;4225859;28;20039;-59
2022/01/04 00:25:00;;;;;;;4.57;0.90;;;;;;;20.24;45.70;102116.63;4231113;27;20096;-59
2022/01/04 00:27:02;;;;;;;1.77;0.88;;;;;;;20.21;46.17;102122.72;4234883;27;20047;-59
2022/01/04 00:29:04;;;;;;;1.60;0.93;;;;;;;20.25;46.16;102117.47;4221768;28;20441;-59
2022/01/04 00:31:05;;;;;;;2.88;0.90;;;;;;;20.08;45.93;102094.38;4231648;27;20053;-58
2022/01/04 00:33:09;;;;;;;5.38;0.90;;;;;;;20.28;46.18;102122.56;4237663;27;20125;-59
2022/01/04 00:35:10;;;;;;;4.68;1.10;;;;;;;20.30;46.05;102132.34;4233555;27;20048;-60
2022/01/04 00:37:12;;;;;;;1.77;1.00;;;;;;;20.27;46.33;102135.63;4236229;27;20100;-59
2022/01/04 00:39:13;;;;;;;3.38;1.45;;;;;;;20.29;46.01;102136.19;4230832;28;20512;-59
2022/01/04 00:41:15;;;;;;;3.30;1.02;;;;;;;20.26;46.37;102128.38;4220145;28;20120;-58
2022/01/04 00:43:19;;;;;;;1.90;0.85;;;;;;;20.25;46.30;102136.94;4234744;27;20032;-59
2022/01/04 00:45:21;;;;;;;4.57;1.13;;;;;;;20.28;46.45;102140.06;4238558;27;20443;-62
2022/01/04 00:47:38;;;;;;;4.53;1.10;;;;;;;20.27;46.36;102149.50;4231492;27;20036;-58
2022/01/04 00:49:40;;;;;;;6.15;0.93;;;;;;;20.30;46.01;102148.19;4233266;27;20020;-57
2022/01/04 00:51:47;;;;;;;1.63;0.80;;;;;;;20.30;46.34;102154.59;4242535;27;20471;-58
2022/01/04 00:53:48;;;;;;;1.65;0.90;;;;;;;20.30;46.08;102159.31;4227715;28;20089;-58
2022/01/04 00:55:50;;;;;;;2.30;0.85;;;;;;;20.25;46.08;102160.03;4229058;28;20097;-60
2022/01/04 00:57:51;;;;;;;2.47;0.80;;;;;;;20.29;45.88;102157.59;4227305;28;20023;-59
2022/01/04 00:59:53;;;;;;;1.48;0.82;;;;;;;20.30;46.21;102162.09;4222652;28;20032;-60
2022/01/04 01:01:54;;;;;;;2.92;1.05;;;;;;;20.25;45.94;102151.72;4227302;28;20044;-60
2022/01/04 01:03:56;;;;;;;2.80;0.98;;;;;;;20.23;46.41;102151.09;4224526;27;20040;-58
2022/01/04 01:06:00;;;;;;;3.63;1.13;;;;;;;20.25;46.43;102157.28;4234495;27;20096;-59
2022/01/04 01:08:03;;;;;;;3.38;1.35;;;;;;;20.24;46.13;102155.56;4229421;28;20093;-59
2022/01/04 01:12:23;;;;;;;6.45;0.98;;;;;;;20.25;46.28;102179.50;4231724;28;20032;-60
2022/01/04 01:14:24;;;;;;;4.78;1.48;;;;;;;20.25;46.23;102178.63;4229882;28;20080;-60
2022/01/04 01:16:26;;;;;;;7.00;1.30;;;;;;;20.26;46.21;102185.91;4230093;27;20100;-60
2022/01/04 01:18:27;;;;;;;4.95;1.35;;;;;;;20.23;46.01;102192.78;4239438;27;20442;-60
2022/01/04 01:20:29;;;;;;;9.50;1.63;;;;;;;20.25;46.55;102198.09;4229600;27;20044;-61
2022/01/04 01:22:30;;;;;;;4.13;1.48;;;;;;;20.25;46.48;102195.31;4226645;27;20078;-61
2022/01/04 01:24:35;;;;;;;5.28;1.38;;;;;;;20.18;46.32;102183.50;4228170;27;20101;-61
2022/01/04 01:26:36;;;;;;;4.25;1.30;;;;;;;20.22;46.71;102205.00;4225427;27;20093;-60
2022/01/04 01:28:38;;;;;;;5.35;1.05;;;;;;;20.23;46.55;102203.06;4224923;28;20448;-59
2022/01/04 01:30:42;;;;;;;5.15;1.48;;;;;;;20.21;46.68;102203.31;4228547;27;20035;-60
2022/01/04 01:32:44;;;;;;;7.38;1.40;;;;;;;20.23;46.88;102208.63;4222805;27;20154;-60
2022/01/04 01:34:46;;;;;;;4.00;1.20;;;;;;;20.21;47.08;102214.44;4228293;27;20121;-60
2022/01/04 01:36:47;;;;;;;3.30;1.20;;;;;;;20.15;46.75;102211.78;4225876;27;20044;-59
2022/01/04 01:38:49;;;;;;;7.55;1.50;;;;;;;20.20;46.80;102221.06;4225390;28;20043;-60
2022/01/04 01:40:51;;;;;;;5.18;1.20;;;;;;;20.19;46.34;102224.94;4226386;28;20032;-59
2022/01/04 01:42:53;;;;;;;6.03;2.17;;;;;;;20.19;46.65;102230.50;4223465;28;20476;-60
2022/01/04 01:44:54;;;;;;;4.78;1.52;;;;;;;20.14;46.67;102227.59;4228931;27;20483;-60
2022/01/04 01:46:59;;;;;;;8.43;1.40;;;;;;;20.20;46.64;102231.34;4229796;27;20060;-60
2022/01/04 01:49:01;;;;;;;6.38;1.30;;;;;;;20.19;46.96;102246.31;4234143;27;20043;-60
2022/01/04 01:51:02;;;;;;;3.00;1.15;;;;;;;20.17;47.19;102249.38;4208052;28;20458;-59
2022/01/04 01:53:07;;;;;;;5.30;1.40;;;;;;;20.17;46.48;102249.38;4224560;27;20047;-60
2022/01/04 01:55:10;;;;;;;4.05;2.08;;;;;;;20.17;47.07;102241.03;4227625;27;20544;-59
2022/01/04 01:57:11;;;;;;;7.78;2.65;;;;;;;20.18;46.97;102248.28;4222280;27;20089;-60
2022/01/04 01:59:16;;;;;;;6.32;2.15;;;;;;;20.16;46.76;102231.00;4229543;27;20039;-59
2022/01/04 02:01:18;;;;;;;12.80;3.22;;;;;;;20.15;46.90;102240.41;4227471;27;20093;-59
2022/01/04 02:03:19;;;;;;;8.93;3.25;;;;;;;20.13;46.96;102248.16;4230636;27;20427;-60
2022/01/04 02:05:21;;;;;;;5.35;2.53;;;;;;;20.14;46.80;102252.63;4223578;27;20068;-59
2022/01/04 02:07:23;;;;;;;11.18;2.25;;;;;;;20.08;46.57;102245.28;4223836;27;20032;-59
2022/01/04 02:09:26;;;;;;;7.55;2.28;;;;;;;20.15;46.94;102275.69;4226592;27;20040;-61
2022/01/04 02:11:29;;;;;;;8.40;2.28;;;;;;;20.15;46.52;102267.34;4218997;28;20044;-59
2022/01/04 02:13:30;;;;;;;7.70;3.03;;;;;;;20.12;46.75;102277.03;4223295;28;20028;-59
2022/01/04 02:15:33;;;;;;;6.40;2.33;;;;;;;20.10;46.35;102276.44;4228340;28;20089;-60
2022/01/04 02:17:35;;;;;;;6.93;2.38;;;;;;;20.12;46.42;102282.59;4223710;27;20044;-60
2022/01/04 02:19:36;;;;;;;4.72;2.40;;;;;;;20.11;46.77;102292.00;4223997;27;20039;-60
2022/01/04 02:21:37;;;;;;;4.65;2.10;;;;;;;20.10;46.30;102292.25;4224544;27;20109;-60
2022/01/04 02:23:39;;;;;;;5.32;2.15;;;;;;;20.09;46.38;102296.97;4229663;27;20093;-60
2022/01/04 02:25:40;;;;;;;4.22;2.28;;;;;;;20.08;46.93;102286.94;4235049;27;20031;-59
2022/01/04 02:27:42;;;;;;;7.40;1.90;;;;;;;20.08;46.76;102292.50;4233246;27;20036;-58
2022/01/04 02:29:44;;;;;;;5.82;2.33;;;;;;;20.06;46.42;102286.34;4233600;27;20039;-61
2022/01/04 02:31:49;;;;;;;5.47;2.42;;;;;;;20.05;46.59;102279.09;4223690;27;20048;-61
2022/01/04 02:33:51;;;;;;;6.57;1.77;;;;;;;20.04;46.13;102288.53;4224026;27;20048;-60
2022/01/04 02:35:52;;;;;;;4.20;2.03;;;;;;;20.08;46.43;102284.19;4229194;27;20035;-59
2022/01/04 02:38:00;;;;;;;5.32;2.58;;;;;;;19.97;46.47;102277.50;4225880;27;20109;-60
2022/01/04 02:40:05;;;;;;;7.07;2.10;;;;;;;20.03;46.50;102286.84;4231582;27;20056;-59
2022/01/04 02:42:06;;;;;;;6.60;2.10;;;;;;;20.04;46.66;102294.09;4226661;27;20155;-61
2022/01/04 02:44:10;;;;;;;3.78;1.90;;;;;;;20.02;46.40;102297.13;4226083;28;20108;-60
2022/01/04 02:46:12;;;;;;;4.85;2.00;;;;;;;20.03;46.36;102292.41;4222346;28;20478;-61
2022/01/04 02:48:13;;;;;;;4.03;1.80;;;;;;;20.02;46.44;102290.69;4218940;28;20048;-60
2022/01/04 02:50:15;;;;;;;7.97;2.50;;;;;;;20.02;46.54;102301.78;4228685;28;20031;-60
2022/01/04 02:52:16;;;;;;;4.43;1.85;;;;;;;20.00;46.67;102310.38;4227409;28;20174;-61
2022/01/04 02:54:18;;;;;;;5.47;1.98;;;;;;;20.01;46.56;102316.78;4219758;28;20089;-63
2022/01/04 02:56:19;;;;;;;4.68;2.05;;;;;;;20.00;46.53;102320.66;4219543;28;20099;-61
2022/01/04 02:58:21;;;;;;;3.47;1.88;;;;;;;19.99;46.69;102318.97;4221569;27;20035;-61
2022/01/04 03:00:25;;;;;;;4.85;1.90;;;;;;;19.97;46.52;102330.31;4228993;27;20136;-59
2022/01/04 03:02:27;;;;;;;3.58;1.67;;;;;;;19.97;46.28;102346.13;4229611;27;20071;-59
2022/01/04 03:04:31;;;;;;;3.67;1.63;;;;;;;19.96;46.44;102338.88;4222745;28;20559;-60
2022/01/04 03:06:32;;;;;;;5.72;2.03;;;;;;;19.93;46.54;102340.25;4227903;28;20101;-60
2022/01/04 03:08:34;;;;;;;3.63;1.70;;;;;;;19.95;46.50;102345.53;4223637;28;20491;-60
2022/01/04 03:10:35;;;;;;;4.32;1.95;;;;;;;19.94;46.36;102346.63;4222613;27;20047;-59
2022/01/04 03:12:42;;;;;;;4.45;2.00;;;;;;;19.95;46.21;102356.66;4229143;27;20389;-60
2022/01/04 03:14:44;;;;;;;6.63;2.88;;;;;;;19.95;46.52;102363.06;4231098;27;20039;-60
2022/01/04 03:16:46;;;;;;;7.45;3.08;;;;;;;19.94;46.57;102366.09;4235122;27;20114;-60
2022/01/04 03:19:11;;;;;;;9.40;3.58;;;;;;;19.92;46.59;102373.78;4237753;27;20095;-60
2022/01/04 03:21:11;;;;;;;9.23;3.53;;;;;;;19.94;46.53;102382.75;4233531;27;20044;-59
2022/01/04 03:23:13;;;;;;;10.32;3.85;;;;;;;19.92;46.64;102380.19;4235142;27;20109;-61
2022/01/04 03:25:14;;;;;;;10.02;3.90;;;;;;;19.90;46.39;102378.75;4231011;27;20043;-59
2022/01/04 03:27:18;;;;;;;10.30;4.82;;;;;;;19.89;46.40;102382.63;4239488;27;20104;-60
2022/01/04 03:29:21;;;;;;;9.13;4.60;;;;;;;19.88;46.37;102378.13;4233730;27;20079;-59
2022/01/04 03:31:22;;;;;;;10.00;4.50;;;;;;;19.87;46.50;102387.56;4228445;28;20047;-60
2022/01/04 03:33:24;;;;;;;9.90;5.03;;;;;;;19.84;46.32;102383.34;4230290;28;20113;-59
2022/01/04 03:35:25;;;;;;;11.07;5.47;;;;;;;19.85;46.82;102381.41;4229773;28;20056;-59
2022/01/04 03:37:26;;;;;;;17.98;6.03;;;;;;;19.86;46.28;102391.44;4231395;27;20038;-60
2022/01/04 03:39:28;;;;;;;13.55;5.03;;;;;;;19.78;46.24;102390.69;4228397;28;20028;-60
2022/01/04 03:41:39;;;;;;;14.88;6.63;;;;;;;19.70;46.67;102385.50;4219653;28;20040;-59
2022/01/04 03:43:40;;;;;;;13.55;5.97;;;;;;;19.73;46.88;102393.31;4227332;28;20044;-60
2022/01/04 03:45:41;;;;;;;16.52;5.75;;;;;;;19.72;46.99;102390.81;4228115;28;20043;-59
2022/01/04 03:47:43;;;;;;;13.90;5.93;;;;;;;19.73;46.98;102400.81;4213741;28;20148;-59
2022/01/04 03:49:45;;;;;;;10.80;5.15;;;;;;;19.67;46.88;102399.00;4247024;28;20036;-58
2022/01/04 03:51:46;;;;;;;19.35;5.72;;;;;;;19.68;47.36;102406.25;4228436;28;20112;-60
2022/01/04 03:53:48;;;;;;;16.92;6.05;;;;;;;19.69;47.07;102419.88;4229552;28;20027;-60
2022/01/04 03:55:49;;;;;;;13.10;5.50;;;;;;;19.70;47.19;102421.59;4225003;28;20036;-59
2022/01/04 03:57:51;;;;;;;11.00;4.88;;;;;;;19.69;47.01;102422.66;4218302;28;20096;-59
2022/01/04 03:59:52;;;;;;;10.98;6.15;;;;;;;19.70;46.69;102421.59;4222887;28;20074;-59
2022/01/04 04:01:54;;;;;;;15.63;5.63;;;;;;;19.73;47.09;102429.44;4228159;27;20047;-59
2022/01/04 04:03:55;;;;;;;16.70;5.80;;;;;;;19.73;47.01;102421.09;4235575;27;20555;-60
2022/01/04 04:05:56;;;;;;;16.85;6.13;;;;;;;19.66;47.52;102420.38;4232388;27;20039;-59
2022/01/04 04:07:58;;;;;;;13.77;6.00;;;;;;;19.63;47.33;102415.28;4239116;27;20076;-59
2022/01/04 04:09:59;;;;;;;24.00;7.20;;;;;;;19.63;47.67;102423.63;4217923;28;20048;-60
2022/01/04 04:12:02;;;;;;;19.60;5.90;;;;;;;19.62;47.47;102430.25;4228378;28;20096;-59
2022/01/04 04:14:03;;;;;;;15.80;5.53;;;;;;;19.44;47.46;102402.50;4236693;27;20112;-59
2022/01/04 04:16:05;;;;;;;16.10;6.00;;;;;;;19.62;47.73;102435.81;4211442;28;20078;-60
2022/01/04 04:18:09;;;;;;;13.18;5.68;;;;;;;19.62;47.25;102441.38;4242626;27;20554;-59
2022/01/04 04:20:11;;;;;;;19.70;5.75;;;;;;;19.60;47.54;102454.63;4236997;27;20080;-60
2022/01/04 04:22:12;;;;;;;18.60;5.90;;;;;;;19.55;47.62;102457.22;4235396;27;20081;-60
2022/01/04 04:24:14;;;;;;;15.55;5.57;;;;;;;19.60;47.86;102465.72;4232628;28;20428;-60
2022/01/04 04:26:15;;;;;;;14.43;6.18;;;;;;;19.60;47.55;102476.84;4233845;28;20039;-60
2022/01/04 04:28:17;;;;;;;20.50;5.78;;;;;;;19.59;47.68;102469.56;4233268;28;20035;-60
2022/01/04 04:30:18;;;;;;;20.65;5.25;;;;;;;19.65;47.08;102462.25;4231864;28;20394;-60
2022/01/04 04:32:20;;;;;;;22.33;7.40;;;;;;;19.73;47.24;102470.25;4222962;28;20048;-61
2022/01/04 04:34:22;;;;;;;15.48;5.47;;;;;;;19.75;46.43;102480.06;4225448;28;20526;-59
2022/01/04 04:36:27;;;;;;;18.10;5.47;;;;;;;19.74;46.56;102481.13;4250222;27;20047;-59
2022/01/04 04:38:28;;;;;;;;;;;;;;;19.70;46.90;102477.16;4235149;27;20027;-59
2022/01/04 04:40:29;;;;;;;28.23;6.38;;;;;;;19.77;47.18;102483.44;4221885;27;20354;-59
2022/01/04 04:42:31;;;;;;;25.13;6.07;;;;;;;19.79;47.04;102483.19;4216381;28;20093;-58
2022/01/04 04:44:32;;;;;;;25.23;5.10;;;;;;;19.83;46.99;102486.34;4228332;28;20039;-58
2022/01/04 04:46:36;;;;;;;25.13;6.78;;;;;;;19.77;47.17;102491.75;4232358;27;20100;-60
2022/01/04 04:48:38;;;;;;;20.80;5.78;;;;;;;19.71;47.47;102489.94;4232748;28;20085;-59
2022/01/04 04:50:40;;;;;;;21.83;5.72;;;;;;;19.64;47.42;102477.22;4233354;28;20043;-59
2022/01/04 04:52:41;;;;;;;30.95;6.03;;;;;;;19.69;47.64;102499.56;4230956;27;20032;-59
2022/01/04 04:54:43;;;;;;;22.90;5.45;;;;;;;19.69;47.80;102514.31;4221210;27;20039;-60
2022/01/04 04:56:44;;;;;;;17.13;5.43;;;;;;;19.70;47.65;102527.13;4216597;28;20109;-59
2022/01/04 04:58:48;;;;;;;19.35;5.03;;;;;;;19.73;47.76;102525.81;4215593;28;20028;-60
2022/01/04 05:00:50;;;;;;;21.48;5.40;;;;;;;19.75;48.05;102524.50;4217955;28;20036;-60
2022/01/04 05:02:51;;;;;;;27.30;6.65;;;;;;;19.76;48.13;102514.22;4230908;27;20417;-59
2022/01/04 05:04:53;;;;;;;14.43;5.45;;;;;;;19.79;48.03;102520.19;4239849;27;20148;-59
2022/01/04 05:06:55;;;;;;;19.38;5.15;;;;;;;19.83;48.08;102533.56;4244753;27;20035;-59
2022/01/04 05:08:56;;;;;;;14.80;5.35;;;;;;;19.84;48.54;102536.13;4232330;27;20043;-59
2022/01/04 05:10:58;;;;;;;14.80;4.70;;;;;;;19.84;48.41;102527.81;4230336;28;20031;-60
2022/01/04 05:12:59;;;;;;;14.63;5.30;;;;;;;19.85;48.39;102540.59;4239992;27;20039;-59
2022/01/04 05:15:02;;;;;;;14.70;4.72;;;;;;;19.86;48.14;102525.63;4235808;27;20039;-59
2022/01/04 05:17:03;;;;;;;10.75;5.45;;;;;;;19.84;48.86;102529.69;4232583;27;20077;-59
2022/01/04 05:19:05;;;;;;;13.95;5.00;;;;;;;19.83;48.98;102536.34;4228978;28;20183;-60
2022/01/04 05:21:06;;;;;;;11.50;4.40;;;;;;;19.84;48.68;102525.03;4230509;28;20109;-59
2022/01/04 05:23:08;;;;;;;12.55;4.05;;;;;;;19.85;48.80;102520.31;4232249;28;20039;-59
2022/01/04 05:25:09;;;;;;;17.98;4.80;;;;;;;19.84;49.47;102513.03;4230348;28;20051;-59
2022/01/04 05:27:11;;;;;;;13.07;4.20;;;;;;;19.85;49.36;102523.09;4232312;28;20101;-60
2022/01/04 05:29:12;;;;;;;13.15;4.10;;;;;;;19.87;49.50;102532.03;4231978;28;20112;-58
2022/01/04 05:31:14;;;;;;;16.52;5.10;;;;;;;19.87;49.41;102538.41;4232233;28;20106;-60
2022/01/04 05:33:16;;;;;;;11.07;4.90;;;;;;;19.88;49.67;102533.72;4230950;28;20543;-60
2022/01/04 05:35:17;;;;;;;12.02;4.47;;;;;;;19.90;49.31;102543.50;4232005;28;20048;-61
2022/01/04 05:37:19;;;;;;;8.85;3.92;;;;;;;19.92;49.64;102562.72;4223906;28;20040;-59
2022/01/04 05:39:29;;;;;;;6.95;2.78;;;;;;;19.49;36.77;102558.13;4231542;28;20047;-59
2022/01/04 05:41:33;;;;;;;4.70;2.72;;;;;;;18.69;35.89;102570.06;4225032;28;20039;-60
2022/01/04 05:43:35;;;;;;;6.80;2.37;;;;;;;18.05;36.33;102576.66;4231695;28;20096;-59
2022/01/04 05:45:36;;;;;;;5.13;2.10;;;;;;;17.58;36.46;102575.16;4230267;28;20047;-60
2022/01/04 05:47:38;;;;;;;8.63;2.45;;;;;;;17.17;35.92;102599.31;4230804;28;20044;-58
2022/01/04 05:49:39;;;;;;;9.60;2.05;;;;;;;16.59;36.18;102601.03;4230433;28;20051;-61
2022/01/04 05:51:42;;;;;;;4.00;2.00;;;;;;;16.31;34.90;102612.25;4231039;28;20039;-60
2022/01/04 05:53:44;;;;;;;5.05;2.53;;;;;;;16.14;40.59;102620.09;4232458;28;20035;-60
2022/01/04 05:55:45;;;;;;;4.30;1.60;;;;;;;15.86;34.75;102606.41;4226750;27;20031;-60
2022/01/04 05:57:47;;;;;;;4.68;2.30;;;;;;;15.69;38.59;102612.25;4215323;28;20036;-59
2022/01/04 05:59:48;;;;;;;7.53;2.35;;;;;;;15.42;39.40;102615.91;4222958;28;20035;-59
2022/01/04 06:01:50;;;;;;;6.47;1.88;;;;;;;15.30;38.34;102612.00;4230030;28;20420;-59
2022/01/04 06:03:57;;;;;;;4.40;1.98;;;;;;;15.22;37.25;102621.31;4231483;28;20532;-59
2022/01/04 06:05:59;;;;;;;4.60;2.03;;;;;;;15.11;37.72;102619.94;4221675;28;20048;-59
2022/01/04 06:08:01;;;;;;;3.67;1.70;;;;;;;15.10;37.28;102622.91;4221760;28;20096;-59
2022/01/04 06:10:03;;;;;;;4.43;1.60;;;;;;;15.14;37.65;102630.59;4229639;28;20044;-59
2022/01/04 06:16:48;;;;;;;4.78;1.60;;;;;;;14.71;35.30;102630.66;4232992;28;20554;-61
2022/01/04 06:18:49;;;;;;;3.78;1.50;;;;;;;14.63;36.86;102627.19;4229008;28;20470;-60
2022/01/04 06:20:51;;;;;;;3.78;1.50;;;;;;;14.43;33.40;102632.47;4232124;28;20092;-61
2022/01/04 06:22:54;;;;;;;4.72;1.40;;;;;;;14.08;32.96;102634.22;4230696;28;20040;-60
2022/01/04 06:24:56;;;;;;;4.15;1.52;;;;;;;13.98;35.15;102651.03;4230826;28;20641;-59
2022/01/04 06:26:58;;;;;;;4.00;1.48;;;;;;;13.90;34.38;102643.72;4230628;28;20043;-60
2022/01/04 06:28:59;;;;;;;3.15;1.52;;;;;;;13.95;41.46;102648.66;4231136;28;20039;-60
2022/01/04 06:31:01;;;;;;;4.63;1.65;;;;;;;13.72;36.49;102652.38;4230212;28;20097;-59
2022/01/04 06:33:02;;;;;;;3.72;1.58;;;;;;;13.91;35.47;102661.09;4230034;28;20088;-58
2022/01/04 06:35:04;;;;;;;3.63;1.77;;;;;;;13.91;40.70;102650.09;4225242;28;20024;-59
2022/01/04 06:37:07;;;;;;;3.67;1.33;;;;;;;13.92;34.53;102646.28;4231177;28;20539;-60
2022/01/04 06:39:08;;;;;;;3.90;1.50;;;;;;;13.68;36.07;102651.06;4230462;28;20040;-59
2022/01/04 06:41:10;;;;;;;3.10;1.55;;;;;;;13.65;34.17;102656.97;4230168;28;20433;-60
2022/01/04 06:43:11;;;;;;;2.28;1.42;;;;;;;13.65;35.94;102669.84;4231086;28;20482;-60
2022/01/04 06:45:14;;;;;;;3.65;1.65;;;;;;;13.52;36.87;102680.69;4230123;28;20077;-60
2022/01/04 06:47:18;;;;;;;4.15;1.80;;;;;;;13.47;36.65;102671.09;4230017;27;20047;-61
2022/01/04 06:49:23;;;;;;;3.50;1.75;;;;;;;13.36;36.88;102689.94;4212885;28;20032;-61
2022/01/04 06:51:24;;;;;;;2.22;1.17;;;;;;;13.37;38.74;102692.50;4229998;28;20093;-59
2022/01/04 06:53:26;;;;;;;2.83;1.52;;;;;;;13.51;37.68;102692.69;4231525;28;20039;-60
2022/01/04 06:55:27;;;;;;;4.30;1.50;;;;;;;13.46;36.22;102687.75;4230554;28;20471;-59
2022/01/04 06:57:28;;;;;;;2.47;1.25;;;;;;;13.31;37.78;102703.41;4230038;28;20031;-60
2022/01/04 06:59:30;;;;;;;1.95;1.33;;;;;;;13.11;36.40;102714.03;4230004;28;20047;-59
2022/01/04 07:01:33;;;;;;;2.08;1.40;;;;;;;13.08;36.18;102714.41;4231361;28;20077;-60
2022/01/04 07:03:35;;;;;;;2.35;1.33;;;;;;;13.12;35.49;102702.84;4230574;28;20044;-59
2022/01/04 07:05:36;;;;;;;2.83;1.63;;;;;;;13.16;34.20;102706.09;4220348;28;20052;-61
2022/01/04 07:07:38;;;;;;;4.43;2.13;;;;;;;13.20;37.39;102719.28;4229614;28;20128;-60
2022/01/04 07:09:42;;;;;;;2.17;1.27;;;;;;;13.15;37.82;102720.88;4229595;28;20044;-59
2022/01/04 07:11:44;;;;;;;2.72;1.60;;;;;;;13.13;36.94;102726.53;4223795;28;20138;-59
2022/01/04 07:13:45;;;;;;;2.92;1.42;;;;;;;13.25;35.96;102734.41;4230394;28;20108;-61
2022/01/04 07:15:47;;;;;;;4.53;1.85;;;;;;;13.27;35.41;102740.56;4231294;28;20043;-59
2022/01/04 07:17:48;;;;;;;2.47;1.25;;;;;;;13.37;38.13;102735.63;4228477;28;20043;-59
2022/01/04 07:19:50;;;;;;;4.10;1.70;;;;;;;13.40;36.97;102757.28;4229791;28;20371;-60
2022/01/04 07:21:51;;;;;;;1.65;1.20;;;;;;;13.37;36.31;102753.00;4229027;28;20032;-59
2022/01/04 07:23:56;;;;;;;1.77;1.17;;;;;;;13.33;36.33;102765.44;4230694;28;20053;-59
2022/01/04 07:25:57;;;;;;;3.65;1.25;;;;;;;13.07;36.47;102757.53;4229549;28;20120;-60
2022/01/04 07:27:59;;;;;;;1.98;1.13;;;;;;;13.06;35.27;102750.34;4228017;28;20195;-59
2022/01/04 07:30:00;;;;;;;2.67;1.63;;;;;;;13.02;35.22;102757.22;4225746;28;20047;-60
2022/01/04 07:32:02;;;;;;;4.28;1.40;;;;;;;13.01;36.66;102757.41;4221041;28;20043;-57
2022/01/04 07:34:03;;;;;;;2.80;1.50;;;;;;;12.90;35.28;102750.44;4225695;28;20039;-60
2022/01/04 07:36:06;;;;;;;3.65;1.60;;;;;;;12.69;34.00;102749.22;4220235;28;20158;-60
2022/01/04 07:38:07;;;;;;;2.72;1.50;;;;;;;12.71;39.44;102749.88;4227597;28;20036;-61
2022/01/04 07:40:09;;;;;;;3.30;1.52;;;;;;;12.48;34.83;102750.91;4229715;28;20097;-59
2022/01/04 07:42:11;;;;;;;3.42;1.52;;;;;;;12.29;35.01;102758.56;4221831;28;20094;-59
2022/01/04 07:44:12;;;;;;;2.60;1.50;;;;;;;12.23;36.72;102780.34;4218015;28;20433;-60
2022/01/04 07:46:13;;;;;;;4.80;1.50;;;;;;;12.08;36.41;102778.34;4215615;28;20147;-59
2022/01/04 07:48:15;;;;;;;2.55;1.40;;;;;;;11.92;36.90;102770.19;4220325;28;20093;-59
2022/01/04 07:50:17;;;;;;;3.92;1.60;;;;;;;11.69;34.70;102765.41;4228184;28;20048;-60
2022/01/04 07:52:22;;;;;;;1.85;1.45;;;;;;;11.63;37.09;102757.88;4216081;28;20357;-60
2022/01/04 07:54:23;;;;;;;3.47;1.87;;;;;;;11.79;35.74;102758.88;4223952;28;20124;-59
2022/01/04 07:56:24;;;;;;;2.58;1.73;;;;;;;11.77;36.25;102758.19;4228330;28;20052;-61
2022/01/04 07:58:29;;;;;;;4.25;1.58;;;;;;;11.66;34.58;102763.00;4228046;28;20027;-59
2022/01/04 08:00:36;;;;;;;2.30;1.52;;;;;;;11.50;36.10;102757.56;4228601;28;20432;-60
2022/01/04 08:02:38;;;;;;;2.83;1.70;;;;;;;11.31;35.24;102764.25;4229080;28;20095;-59
2022/01/04 08:04:40;;;;;;;1.63;1.23;;;;;;;11.30;37.15;102761.69;4225383;28;20036;-60
2022/01/04 08:06:41;;;;;;;4.22;1.73;;;;;;;11.39;35.83;102760.66;4218780;28;20436;-57
2022/01/04 08:08:42;;;;;;;2.72;1.42;;;;;;;11.50;37.88;102752.09;4222152;28;21664;-59
2022/01/04 08:10:46;;;;;;;2.40;1.50;;;;;;;11.59;37.15;102756.53;4213523;28;20086;-59
2022/01/04 08:12:48;;;;;;;2.78;1.58;;;;;;;11.51;35.18;102745.56;4229668;28;20040;-61
2022/01/04 08:14:49;;;;;;;3.20;2.10;;;;;;;11.57;35.94;102775.03;4228078;28;20100;-60
2022/01/04 08:16:51;;;;;;;2.47;1.60;;;;;;;11.55;38.82;102771.63;4224669;28;20313;-60
2022/01/04 08:18:52;;;;;;;2.95;1.50;;;;;;;11.45;36.19;102774.53;4230195;28;20429;-60
2022/01/04 08:20:57;;;;;;;1.83;1.30;;;;;;;11.51;36.71;102792.19;4230735;28;20060;-59
2022/01/04 08:23:00;;;;;;;2.53;1.45;;;;;;;11.59;37.31;102783.94;4222059;28;20073;-60
2022/01/04 08:25:05;;;;;;;4.63;1.40;;;;;;;11.51;35.77;102781.22;4215834;28;20432;-58
2022/01/04 08:27:06;;;;;;;;;;;;;;;11.42;35.92;102783.09;4224513;28;20036;-59
2022/01/04 08:29:08;;;;;;;1.85;1.33;;;;;;;11.53;37.36;102770.91;4229414;28;19911;-60
2022/01/04 08:31:10;;;;;;;2.70;1.35;;;;;;;11.64;38.70;102784.28;4220297;28;20097;-59
2022/01/04 08:33:14;;;;;;;2.42;1.85;;;;;;;11.82;37.91;102788.69;4226191;28;20372;-61
2022/01/04 08:35:18;;;;;;;2.63;1.40;;;;;;;11.67;34.60;102778.44;4229172;28;20048;-61
2022/01/04 08:37:19;;;;;;;2.58;1.77;;;;;;;11.60;35.12;102791.13;4223767;28;20028;-60
2022/01/04 08:39:26;;;;;;;1.75;1.58;;;;;;;11.48;37.76;102792.50;4224682;28;20100;-60
2022/01/04 08:41:27;;;;;;;3.38;1.42;;;;;;;11.49;38.46;102794.22;4229243;28;20035;-60
2022/01/04 08:43:29;;;;;;;3.67;1.80;;;;;;;11.51;39.32;102796.81;4230150;28;20040;-63
2022/01/04 08:45:34;;;;;;;2.95;1.58;;;;;;;11.69;38.92;102794.72;4219578;28;20063;-58
2022/01/04 08:47:38;;;;;;;3.63;1.65;;;;;;;11.53;35.45;102806.56;4216784;28;20036;-60
2022/01/04 08:49:39;;;;;;;3.80;1.70;;;;;;;11.40;35.75;102803.47;4221227;28;20122;-59
2022/01/04 08:51:41;;;;;;;1.83;1.50;;;;;;;11.25;35.75;102807.94;4231019;28;20036;-61
2022/01/04 08:53:43;;;;;;;1.55;1.20;;;;;;;11.11;35.31;102812.22;4232633;28;20043;-61
2022/01/04 08:55:47;;;;;;;2.78;1.60;;;;;;;10.92;36.13;102807.91;4233047;28;20096;-59
2022/01/04 08:57:49;;;;;;;3.83;1.67;;;;;;;10.82;35.32;102801.75;4232816;28;20429;-60
2022/01/04 08:59:54;;;;;;;2.35;1.40;;;;;;;10.98;37.39;102807.22;4233368;28;20076;-60
2022/01/04 09:01:58;;;;;;;3.40;1.83;;;;;;;10.94;36.03;102814.06;4228076;28;20052;-60
2022/01/04 09:04:01;;;;;;;2.42;1.42;;;;;;;10.91;38.36;102811.69;4232571;28;20040;-60
2022/01/04 09:06:02;;;;;;;3.55;1.90;;;;;;;10.91;34.22;102811.69;4220470;28;20052;-61
2022/01/04 09:08:04;;;;;;;1.92;1.50;;;;;;;10.84;35.43;102816.09;4215666;28;20039;-60
2022/01/04 09:10:06;;;;;;;2.55;1.60;;;;;;;10.85;38.44;102798.63;4217679;28;20036;-59
2022/01/04 09:12:08;;;;;;;2.15;1.50;;;;;;;10.89;35.75;102808.25;4232341;28;20040;-61
2022/01/04 09:14:23;;;;;;;3.00;1.85;;;;;;;11.04;38.63;102800.22;4232868;28;20039;-59
2022/01/04 09:18:49;;;;;;;3.38;1.48;;;;;;;11.03;36.96;102807.56;4232930;28;20080;-59
2022/01/04 09:20:50;;;;;;;2.15;1.60;;;;;;;10.95;36.77;102813.06;4231282;28;20084;-61
2022/01/04 09:22:54;;;;;;;2.80;1.52;;;;;;;10.81;35.57;102820.06;4232537;28;20039;-58
2022/01/04 09:24:56;;;;;;;3.10;1.90;;;;;;;10.77;34.49;102826.88;4232626;28;20047;-60
2022/01/04 09:26:57;;;;;;;3.78;1.73;;;;;;;10.71;36.20;102838.50;4231651;28;20039;-59
2022/01/04 09:28:59;;;;;;;2.75;1.83;;;;;;;10.85;38.11;102837.00;4224307;28;20131;-59
2022/01/04 09:31:00;;;;;;;3.75;1.75;;;;;;;10.88;36.34;102833.91;4228353;28;20043;-60
2022/01/04 09:33:04;;;;;;;2.22;1.42;;;;;;;10.88;36.65;102833.91;4230685;28;20051;-59
2022/01/04 09:35:11;;;;;;;2.75;1.92;;;;;;;10.95;38.20;102834.97;4231404;28;20116;-60
2022/01/04 09:37:13;;;;;;;2.83;1.70;;;;;;;10.77;36.08;102832.38;4231732;28;20116;-61
2022/01/04 09:39:18;;;;;;;4.45;1.77;;;;;;;10.89;36.11;102833.75;4231027;28;20117;-59